sensor_id;sensor_type;location;lat;lon;timestamp;pressure;altitude;pressure_sealevel;temperature;humidity
48624;BME280;34422;45.802;16.114;2022-08-02T00:02:03;100203.94;;;19.41;100.00
48624;BME280;34422;45.802;16.114;2022-08-02T00:04:31;100201.19;;;19.31;100.00
48624;BME280;34422;45.802;16.114;2022-08-02T00:06:57;100199.81;;;19.34;100.00
48624;BME280;34422;45.802;16.114;2022-08-02T00:09:24;100194.03;;;19.30;100.00
48624;BME280;34422;45.802;16.114;2022-08-02T00:11:51;100188.00;;;19.28;100.00
48624;BME280;34422;45.802;16.114;2022-08-02T00:14:17;100190.19;;;19.21;100.00
48624;BME280;34422;45.802;16.114;2022-08-02T00:16:44;100191.31;;;19.25;100.00
48624;BME280;34422;45.802;16.114;2022-08-02T00:19:11;100184.19;;;19.24;100.00
48624;BME280;34422;45.802;16.114;2022-08-02T00:21:38;100188.56;;;19.25;100.00
48624;BME280;34422;45.802;16.114;2022-08-02T00:24:05;100185.81;;;19.25;100.00
48624;BME280;34422;45.802;16.114;2022-08-02T00:26:31;100193.22;;;19.20;100.00
48624;BME280;34422;45.802;16.114;2022-08-02T00:28:58;100202.25;;;19.15;100.00
48624;BME280;34422;45.802;16.114;2022-08-02T00:31:25;100202.22;;;19.05;100.00
48624;BME280;34422;45.802;16.114;2022-08-02T00:33:52;100197.28;;;19.02;100.00
48624;BME280;34422;45.802;16.114;2022-08-02T00:36:18;100198.91;;;19.03;100.00
48624;BME280;34422;45.802;16.114;2022-08-02T00:38:45;100190.13;;;18.96;100.00
48624;BME280;34422;45.802;16.114;2022-08-02T00:41:16;100192.84;;;18.91;100.00
48624;BME280;34422;45.802;16.114;2022-08-02T00:43:44;100197.78;;;18.89;100.00
48624;BME280;34422;45.802;16.114;2022-08-02T00:46:11;100209.31;;;18.91;100.00
48624;BME280;34422;45.802;16.114;2022-08-02T00:48:38;100209.84;;;18.88;100.00
48624;BME280;34422;45.802;16.114;2022-08-02T00:51:05;100204.06;;;18.79;100.00
48624;BME280;34422;45.802;16.114;2022-08-02T00:53:32;100207.06;;;18.77;100.00
48624;BME280;34422;45.802;16.114;2022-08-02T00:56:00;100214.19;;;18.78;100.00
48624;BME280;34422;45.802;16.114;2022-08-02T00:58:26;100207.63;;;18.79;100.00
48624;BME280;34422;45.802;16.114;2022-08-02T01:00:53;100207.09;;;18.83;100.00
48624;BME280;34422;45.802;16.114;2022-08-02T01:03:23;100199.69;;;18.83;100.00
48624;BME280;34422;45.802;16.114;2022-08-02T01:05:50;100206.00;;;18.84;100.00
48624;BME280;34422;45.802;16.114;2022-08-02T01:08:16;100211.50;;;18.84;100.00
48624;BME280;34422;45.802;16.114;2022-08-02T01:10:44;100210.38;;;18.79;100.00
48624;BME280;34422;45.802;16.114;2022-08-02T01:13:10;100220.50;;;18.79;100.00
48624;BME280;34422;45.802;16.114;2022-08-02T01:15:40;100233.13;;;18.80;100.00
48624;BME280;34422;45.802;16.114;2022-08-02T01:18:37;100229.28;;;18.81;100.00
48624;BME280;34422;45.802;16.114;2022-08-02T01:21:28;100232.84;;;18.81;100.00
48624;BME280;34422;45.802;16.114;2022-08-02T01:30:25;100250.63;;;18.69;100.00
48624;BME280;34422;45.802;16.114;2022-08-02T01:32:57;100247.56;;;18.65;100.00
48624;BME280;34422;45.802;16.114;2022-08-02T01:35:37;100236.59;;;18.65;100.00
48624;BME280;34422;45.802;16.114;2022-08-02T01:38:23;100238.78;;;18.63;100.00
48624;BME280;34422;45.802;16.114;2022-08-02T01:40:52;100240.44;;;18.64;100.00
48624;BME280;34422;45.802;16.114;2022-08-02T01:43:21;100235.47;;;18.61;100.00
48624;BME280;34422;45.802;16.114;2022-08-02T01:45:49;100231.34;;;18.59;100.00
48624;BME280;34422;45.802;16.114;2022-08-02T01:48:19;100228.88;;;18.57;100.00
48624;BME280;34422;45.802;16.114;2022-08-02T01:50:48;100229.09;;;18.51;100.00
48624;BME280;34422;45.802;16.114;2022-08-02T01:53:18;100225.28;;;18.52;100.00
48624;BME280;34422;45.802;16.114;2022-08-02T01:55:49;100229.94;;;18.51;100.00
48624;BME280;34422;45.802;16.114;2022-08-02T01:58:18;100235.94;;;18.48;100.00
48624;BME280;34422;45.802;16.114;2022-08-02T02:00:45;100227.16;;;18.46;100.00
48624;BME280;34422;45.802;16.114;2022-08-02T02:03:18;100226.56;;;18.39;100.00
48624;BME280;34422;45.802;16.114;2022-08-02T02:05:47;100230.97;;;18.40;100.00
48624;BME280;34422;45.802;16.114;2022-08-02T02:08:18;100229.88;;;18.41;100.00
48624;BME280;34422;45.802;16.114;2022-08-02T02:10:45;100221.91;;;18.39;100.00
48624;BME280;34422;45.802;16.114;2022-08-02T02:13:15;100225.22;;;18.41;100.00
48624;BME280;34422;45.802;16.114;2022-08-02T02:15:47;100221.41;;;18.42;100.00
48624;BME280;34422;45.802;16.114;2022-08-02T02:18:19;100224.41;;;18.41;100.00
48624;BME280;34422;45.802;16.114;2022-08-02T02:20:47;100222.69;;;18.35;100.00
48624;BME280;34422;45.802;16.114;2022-08-02T02:23:14;100236.41;;;18.35;100.00
48624;BME280;34422;45.802;16.114;2022-08-02T02:25:43;100231.44;;;18.32;100.00
48624;BME280;34422;45.802;16.114;2022-08-02T02:28:13;100238.06;;;18.36;100.00
48624;BME280;34422;45.802;16.114;2022-08-02T02:30:46;100242.97;;;18.34;100.00
48624;BME280;34422;45.802;16.114;2022-08-02T02:33:17;100245.44;;;18.30;100.00
48624;BME280;34422;45.802;16.114;2022-08-02T02:35:46;100251.44;;;18.27;100.00
48624;BME280;34422;45.802;16.114;2022-08-02T02:38:15;100243.47;;;18.26;100.00
48624;BME280;34422;45.802;16.114;2022-08-02T02:40:45;100245.91;;;18.22;100.00
48624;BME280;34422;45.802;16.114;2022-08-02T02:43:13;100247.22;;;18.15;100.00
48624;BME280;34422;45.802;16.114;2022-08-02T02:45:42;100248.78;;;18.05;100.00
48624;BME280;34422;45.802;16.114;2022-08-02T02:48:12;100253.16;;;18.01;100.00
48624;BME280;34422;45.802;16.114;2022-08-02T02:50:41;100245.16;;;17.95;100.00
48624;BME280;34422;45.802;16.114;2022-08-02T02:53:10;100245.41;;;17.93;100.00
48624;BME280;34422;45.802;16.114;2022-08-02T02:55:39;100249.28;;;17.97;100.00
48624;BME280;34422;45.802;16.114;2022-08-02T02:58:07;100251.50;;;18.00;100.00
48624;BME280;34422;45.802;16.114;2022-08-02T03:00:35;100252.03;;;17.97;100.00
48624;BME280;34422;45.802;16.114;2022-08-02T03:03:21;100258.91;;;18.05;100.00
48624;BME280;34422;45.802;16.114;2022-08-02T03:05:48;100255.91;;;18.06;100.00
48624;BME280;34422;45.802;16.114;2022-08-02T03:08:15;100266.03;;;18.06;100.00
48624;BME280;34422;45.802;16.114;2022-08-02T03:10:44;100266.88;;;18.06;100.00
48624;BME280;34422;45.802;16.114;2022-08-02T03:13:11;100271.84;;;18.09;100.00
48624;BME280;34422;45.802;16.114;2022-08-02T03:15:39;100266.16;;;18.16;100.00
48624;BME280;34422;45.802;16.114;2022-08-02T03:18:05;100264.25;;;18.22;100.00
48624;BME280;34422;45.802;16.114;2022-08-02T03:20:35;100263.16;;;18.23;100.00
48624;BME280;34422;45.802;16.114;2022-08-02T03:23:02;100263.78;;;18.30;100.00
48624;BME280;34422;45.802;16.114;2022-08-02T03:25:29;100258.84;;;18.32;100.00
48624;BME280;34422;45.802;16.114;2022-08-02T03:27:55;100267.94;;;18.37;100.00
48624;BME280;34422;45.802;16.114;2022-08-02T03:30:22;100265.75;;;18.39;100.00
48624;BME280;34422;45.802;16.114;2022-08-02T03:32:52;100271.53;;;18.43;100.00
48624;BME280;34422;45.802;16.114;2022-08-02T03:35:19;100264.16;;;18.43;100.00
48624;BME280;34422;45.802;16.114;2022-08-02T03:37:47;100273.78;;;18.51;100.00
48624;BME280;34422;45.802;16.114;2022-08-02T03:40:14;100276.56;;;18.56;100.00
48624;BME280;34422;45.802;16.114;2022-08-02T03:42:42;100277.94;;;18.59;100.00
48624;BME280;34422;45.802;16.114;2022-08-02T03:45:10;100274.41;;;18.63;100.00
48624;BME280;34422;45.802;16.114;2022-08-02T03:47:38;100273.34;;;18.64;100.00
48624;BME280;34422;45.802;16.114;2022-08-02T03:50:07;100287.28;;;18.63;100.00
48624;BME280;34422;45.802;16.114;2022-08-02T03:52:36;100293.59;;;18.63;100.00
48624;BME280;34422;45.802;16.114;2022-08-02T03:55:03;100299.91;;;18.64;100.00
48624;BME280;34422;45.802;16.114;2022-08-02T03:57:30;100300.75;;;18.64;100.00
48624;BME280;34422;45.802;16.114;2022-08-02T03:59:58;100304.56;;;18.63;100.00
48624;BME280;34422;45.802;16.114;2022-08-02T04:02:25;100312.84;;;18.68;100.00
48624;BME280;34422;45.802;16.114;2022-08-02T04:04:52;100317.13;;;18.59;100.00
48624;BME280;34422;45.802;16.114;2022-08-02T04:07:18;100321.28;;;18.62;100.00
48624;BME280;34422;45.802;16.114;2022-08-02T04:09:45;100322.91;;;18.63;100.00
48624;BME280;34422;45.802;16.114;2022-08-02T04:12:12;100317.50;;;18.68;100.00
48624;BME280;34422;45.802;16.114;2022-08-02T04:14:39;100326.59;;;18.78;100.00
48624;BME280;34422;45.802;16.114;2022-08-02T04:17:08;100318.41;;;18.84;100.00
48624;BME280;34422;45.802;16.114;2022-08-02T04:22:14;100315.06;;;18.76;100.00
48624;BME280;34422;45.802;16.114;2022-08-02T04:24:46;100323.22;;;18.66;100.00
48624;BME280;34422;45.802;16.114;2022-08-02T04:27:15;100329.28;;;18.68;100.00
48624;BME280;34422;45.802;16.114;2022-08-02T04:29:43;100322.66;;;18.64;100.00
48624;BME280;34422;45.802;16.114;2022-08-02T04:32:11;100332.03;;;18.73;100.00
48624;BME280;34422;45.802;16.114;2022-08-02T04:34:38;100332.34;;;18.77;100.00
48624;BME280;34422;45.802;16.114;2022-08-02T04:37:05;100330.38;;;18.72;100.00
48624;BME280;34422;45.802;16.114;2022-08-02T04:39:33;100327.97;;;18.81;100.00
48624;BME280;34422;45.802;16.114;2022-08-02T04:42:00;100332.16;;;18.94;100.00
48624;BME280;34422;45.802;16.114;2022-08-02T04:44:26;100341.59;;;19.13;100.00
48624;BME280;34422;45.802;16.114;2022-08-02T04:46:53;100336.16;;;19.23;100.00
48624;BME280;34422;45.802;16.114;2022-08-02T04:49:21;100324.91;;;19.30;100.00
48624;BME280;34422;45.802;16.114;2022-08-02T04:51:48;100324.69;;;19.36;100.00
48624;BME280;34422;45.802;16.114;2022-08-02T04:54:14;100329.91;;;19.43;100.00
48624;BME280;34422;45.802;16.114;2022-08-02T04:56:41;100318.19;;;19.63;100.00
48624;BME280;34422;45.802;16.114;2022-08-02T04:59:08;100320.97;;;19.78;100.00
48624;BME280;34422;45.802;16.114;2022-08-02T05:01:35;100315.78;;;19.92;100.00
48624;BME280;34422;45.802;16.114;2022-08-02T05:04:02;100313.31;;;20.00;100.00
48624;BME280;34422;45.802;16.114;2022-08-02T05:06:30;100316.06;;;20.05;100.00
48624;BME280;34422;45.802;16.114;2022-08-02T05:08:57;100319.91;;;20.19;100.00
48624;BME280;34422;45.802;16.114;2022-08-02T05:11:24;100326.78;;;20.12;100.00
48624;BME280;34422;45.802;16.114;2022-08-02T05:13:51;100323.75;;;20.23;100.00
48624;BME280;34422;45.802;16.114;2022-08-02T05:16:18;100320.72;;;20.25;100.00
48624;BME280;34422;45.802;16.114;2022-08-02T05:18:45;100318.25;;;20.34;100.00
48624;BME280;34422;45.802;16.114;2022-08-02T05:21:12;100320.47;;;20.52;100.00
48624;BME280;34422;45.802;16.114;2022-08-02T05:23:38;100323.75;;;20.64;100.00
48624;BME280;34422;45.802;16.114;2022-08-02T05:26:05;100320.97;;;20.84;100.00
48624;BME280;34422;45.802;16.114;2022-08-02T05:28:32;100315.97;;;21.02;100.00
48624;BME280;34422;45.802;16.114;2022-08-02T05:30:59;100322.50;;;21.21;100.00
48624;BME280;34422;45.802;16.114;2022-08-02T05:33:25;100314.75;;;21.33;100.00
48624;BME280;34422;45.802;16.114;2022-08-02T05:35:52;100325.06;;;21.61;100.00
48624;BME280;34422;45.802;16.114;2022-08-02T05:38:19;100319.97;;;21.84;100.00
48624;BME280;34422;45.802;16.114;2022-08-02T05:40:46;100323.16;;;22.06;100.00
48624;BME280;34422;45.802;16.114;2022-08-02T05:43:13;100320.31;;;22.16;100.00
48624;BME280;34422;45.802;16.114;2022-08-02T05:45:40;100310.19;;;22.41;100.00
48624;BME280;34422;45.802;16.114;2022-08-02T05:48:07;100305.44;;;22.46;100.00
48624;BME280;34422;45.802;16.114;2022-08-02T05:50:37;100312.75;;;22.61;100.00
48624;BME280;34422;45.802;16.114;2022-08-02T05:53:23;100312.56;;;22.81;100.00
48624;BME280;34422;45.802;16.114;2022-08-02T05:56:08;100318.22;;;22.95;100.00
48624;BME280;34422;45.802;16.114;2022-08-02T05:58:46;100320.97;;;23.19;100.00
48624;BME280;34422;45.802;16.114;2022-08-02T06:01:21;100319.03;;;23.38;100.00
48624;BME280;34422;45.802;16.114;2022-08-02T06:03:56;100321.63;;;23.53;99.60
48624;BME280;34422;45.802;16.114;2022-08-02T06:06:24;100323.47;;;23.63;100.00
48624;BME280;34422;45.802;16.114;2022-08-02T06:08:58;100318.97;;;23.86;100.00
48624;BME280;34422;45.802;16.114;2022-08-02T06:11:37;100325.31;;;24.05;99.16
48624;BME280;34422;45.802;16.114;2022-08-02T06:14:05;100322.75;;;24.27;97.60
48624;BME280;34422;45.802;16.114;2022-08-02T06:16:34;100326.28;;;24.47;95.82
48624;BME280;34422;45.802;16.114;2022-08-02T06:19:01;100322.63;;;24.51;92.34
48624;BME280;34422;45.802;16.114;2022-08-02T06:21:29;100327.97;;;24.61;91.72
48624;BME280;34422;45.802;16.114;2022-08-02T06:23:57;100334.56;;;24.93;87.62
48624;BME280;34422;45.802;16.114;2022-08-02T06:26:26;100337.47;;;25.29;84.83
48624;BME280;34422;45.802;16.114;2022-08-02T06:28:54;100332.59;;;25.12;83.77
48624;BME280;34422;45.802;16.114;2022-08-02T06:31:21;100344.66;;;25.30;84.54
48624;BME280;34422;45.802;16.114;2022-08-02T06:33:48;100347.13;;;25.45;82.27
48624;BME280;34422;45.802;16.114;2022-08-02T06:36:37;100347.63;;;25.47;81.16
48624;BME280;34422;45.802;16.114;2022-08-02T06:39:14;100354.59;;;26.08;78.82
48624;BME280;34422;45.802;16.114;2022-08-02T06:41:48;100356.13;;;26.14;75.98
48624;BME280;34422;45.802;16.114;2022-08-02T06:44:16;100357.91;;;26.10;77.17
48624;BME280;34422;45.802;16.114;2022-08-02T06:46:43;100355.13;;;26.10;75.37
48624;BME280;34422;45.802;16.114;2022-08-02T06:49:09;100362.72;;;25.68;75.80
48624;BME280;34422;45.802;16.114;2022-08-02T06:51:36;100350.38;;;25.74;76.30
48624;BME280;34422;45.802;16.114;2022-08-02T06:54:03;100358.28;;;25.81;77.40
48624;BME280;34422;45.802;16.114;2022-08-02T06:56:30;100359.81;;;25.73;78.97
48624;BME280;34422;45.802;16.114;2022-08-02T06:58:56;100356.38;;;25.40;79.74
48624;BME280;34422;45.802;16.114;2022-08-02T07:01:23;100361.91;;;25.54;79.99
48624;BME280;34422;45.802;16.114;2022-08-02T07:03:50;100356.56;;;25.17;80.64
48624;BME280;34422;45.802;16.114;2022-08-02T07:06:17;100356.50;;;24.89;82.04
48624;BME280;34422;45.802;16.114;2022-08-02T07:08:43;100349.13;;;24.71;82.92
48624;BME280;34422;45.802;16.114;2022-08-02T07:11:10;100348.28;;;24.70;84.02
48624;BME280;34422;45.802;16.114;2022-08-02T07:13:37;100354.22;;;24.64;83.90
48624;BME280;34422;45.802;16.114;2022-08-02T07:16:04;100359.75;;;24.64;83.10
48624;BME280;34422;45.802;16.114;2022-08-02T07:18:31;100357.31;;;24.76;83.24
48624;BME280;34422;45.802;16.114;2022-08-02T07:20:57;100355.19;;;24.87;83.06
48624;BME280;34422;45.802;16.114;2022-08-02T07:23:24;100356.91;;;24.69;84.18
48624;BME280;34422;45.802;16.114;2022-08-02T07:25:51;100357.69;;;24.56;84.29
48624;BME280;34422;45.802;16.114;2022-08-02T07:28:17;100356.59;;;24.38;83.85
48624;BME280;34422;45.802;16.114;2022-08-02T07:30:46;100358.34;;;24.48;84.87
48624;BME280;34422;45.802;16.114;2022-08-02T07:33:13;100364.25;;;24.60;88.54
48624;BME280;34422;45.802;16.114;2022-08-02T07:35:39;100365.50;;;24.35;90.96
48624;BME280;34422;45.802;16.114;2022-08-02T07:38:06;100356.72;;;24.47;91.15
48624;BME280;34422;45.802;16.114;2022-08-02T07:40:34;100362.16;;;24.52;90.34
48624;BME280;34422;45.802;16.114;2022-08-02T07:43:01;100366.75;;;24.42;89.98
48624;BME280;34422;45.802;16.114;2022-08-02T07:45:29;100372.06;;;24.20;89.29
48624;BME280;34422;45.802;16.114;2022-08-02T07:47:56;100377.16;;;24.13;90.15
48624;BME280;34422;45.802;16.114;2022-08-02T07:50:23;100379.38;;;24.11;90.92
48624;BME280;34422;45.802;16.114;2022-08-02T07:52:49;100381.34;;;24.10;91.32
48624;BME280;34422;45.802;16.114;2022-08-02T07:55:16;100380.81;;;24.08;92.00
48624;BME280;34422;45.802;16.114;2022-08-02T07:57:44;100387.84;;;24.01;93.37
48624;BME280;34422;45.802;16.114;2022-08-02T08:00:11;100394.03;;;23.93;95.28
48624;BME280;34422;45.802;16.114;2022-08-02T08:02:39;100393.19;;;23.92;96.43
48624;BME280;34422;45.802;16.114;2022-08-02T08:05:06;100389.22;;;23.80;98.02
48624;BME280;34422;45.802;16.114;2022-08-02T08:07:34;100389.69;;;23.87;96.08
48624;BME280;34422;45.802;16.114;2022-08-02T08:10:01;100393.13;;;23.79;95.63
48624;BME280;34422;45.802;16.114;2022-08-02T08:12:28;100394.75;;;23.80;95.77
48624;BME280;34422;45.802;16.114;2022-08-02T08:14:55;100397.38;;;23.71;96.22
48624;BME280;34422;45.802;16.114;2022-08-02T08:17:21;100392.66;;;23.71;94.42
48624;BME280;34422;45.802;16.114;2022-08-02T08:19:49;100401.09;;;23.61;95.25
48624;BME280;34422;45.802;16.114;2022-08-02T08:22:15;100390.44;;;23.73;95.50
48624;BME280;34422;45.802;16.114;2022-08-02T08:24:42;100394.84;;;23.74;95.37
48624;BME280;34422;45.802;16.114;2022-08-02T08:27:09;100400.81;;;23.82;95.15
48624;BME280;34422;45.802;16.114;2022-08-02T08:29:58;100400.31;;;23.98;95.15
48624;BME280;34422;45.802;16.114;2022-08-02T08:32:28;100405.97;;;24.07;94.04
48624;BME280;34422;45.802;16.114;2022-08-02T08:34:54;100407.41;;;24.04;93.18
48624;BME280;34422;45.802;16.114;2022-08-02T08:37:21;100414.06;;;24.03;91.03
48624;BME280;34422;45.802;16.114;2022-08-02T08:39:48;100414.81;;;24.09;90.65
48624;BME280;34422;45.802;16.114;2022-08-02T08:42:15;100410.72;;;24.25;90.24
48624;BME280;34422;45.802;16.114;2022-08-02T08:44:42;100414.44;;;24.34;88.27
48624;BME280;34422;45.802;16.114;2022-08-02T08:47:10;100422.06;;;24.42;84.49
48624;BME280;34422;45.802;16.114;2022-08-02T08:49:43;100419.91;;;24.39;85.04
48624;BME280;34422;45.802;16.114;2022-08-02T08:52:12;100425.13;;;24.60;84.87
48624;BME280;34422;45.802;16.114;2022-08-02T08:54:40;100430.72;;;24.73;83.25
48624;BME280;34422;45.802;16.114;2022-08-02T08:57:09;100431.94;;;24.81;84.74
48624;BME280;34422;45.802;16.114;2022-08-02T08:59:36;100436.34;;;25.01;81.78
48624;BME280;34422;45.802;16.114;2022-08-02T09:02:04;100434.22;;;24.93;82.46
48624;BME280;34422;45.802;16.114;2022-08-02T09:04:31;100440.06;;;24.91;82.85
48624;BME280;34422;45.802;16.114;2022-08-02T09:06:59;100445.56;;;24.96;83.08
48624;BME280;34422;45.802;16.114;2022-08-02T09:09:26;100450.31;;;25.09;82.58
48624;BME280;34422;45.802;16.114;2022-08-02T09:11:53;100449.09;;;25.29;81.93
48624;BME280;34422;45.802;16.114;2022-08-02T09:14:27;100455.84;;;25.09;82.72
48624;BME280;34422;45.802;16.114;2022-08-02T09:17:05;100468.00;;;25.41;83.28
48624;BME280;34422;45.802;16.114;2022-08-02T09:19:32;100463.91;;;25.52;81.62
48624;BME280;34422;45.802;16.114;2022-08-02T09:22:08;100457.84;;;25.50;79.62
48624;BME280;34422;45.802;16.114;2022-08-02T09:24:46;100454.47;;;25.53;79.16
48624;BME280;34422;45.802;16.114;2022-08-02T09:27:16;100461.03;;;25.84;77.68
48624;BME280;34422;45.802;16.114;2022-08-02T09:29:51;100455.84;;;25.69;78.17
48624;BME280;34422;45.802;16.114;2022-08-02T09:32:19;100453.22;;;25.59;79.86
48624;BME280;34422;45.802;16.114;2022-08-02T09:34:48;100456.56;;;25.29;82.53
48624;BME280;34422;45.802;16.114;2022-08-02T09:37:23;100449.31;;;25.46;82.42
48624;BME280;34422;45.802;16.114;2022-08-02T09:39:50;100454.78;;;25.65;83.53
48624;BME280;34422;45.802;16.114;2022-08-02T09:42:17;100455.78;;;25.42;83.42
48624;BME280;34422;45.802;16.114;2022-08-02T09:44:55;100452.59;;;25.35;84.36
48624;BME280;34422;45.802;16.114;2022-08-02T09:47:24;100454.78;;;25.05;84.29
48624;BME280;34422;45.802;16.114;2022-08-02T09:49:53;100452.25;;;24.90;84.60
48624;BME280;34422;45.802;16.114;2022-08-02T09:52:30;100456.34;;;24.98;83.79
48624;BME280;34422;45.802;16.114;2022-08-02T09:55:03;100459.72;;;25.08;83.36
48624;BME280;34422;45.802;16.114;2022-08-02T09:57:31;100459.34;;;25.29;82.66
48624;BME280;34422;45.802;16.114;2022-08-02T10:00:08;100454.63;;;25.29;80.67
48624;BME280;34422;45.802;16.114;2022-08-02T10:02:36;100450.09;;;25.20;78.90
48624;BME280;34422;45.802;16.114;2022-08-02T10:05:04;100454.63;;;25.43;77.46
48624;BME280;34422;45.802;16.114;2022-08-02T10:07:31;100444.47;;;25.25;77.75
48624;BME280;34422;45.802;16.114;2022-08-02T10:09:59;100452.81;;;25.52;77.04
48624;BME280;34422;45.802;16.114;2022-08-02T10:12:27;100451.81;;;25.75;76.35
48624;BME280;34422;45.802;16.114;2022-08-02T10:14:55;100444.81;;;25.92;74.32
48624;BME280;34422;45.802;16.114;2022-08-02T10:17:23;100447.69;;;25.73;73.87
48624;BME280;34422;45.802;16.114;2022-08-02T10:19:50;100448.22;;;25.61;75.28
48624;BME280;34422;45.802;16.114;2022-08-02T10:22:17;100447.00;;;25.67;74.43
48624;BME280;34422;45.802;16.114;2022-08-02T10:24:44;100454.47;;;25.53;75.64
48624;BME280;34422;45.802;16.114;2022-08-02T10:27:14;100450.25;;;25.28;77.17
48624;BME280;34422;45.802;16.114;2022-08-02T10:29:42;100447.13;;;25.30;77.36
48624;BME280;34422;45.802;16.114;2022-08-02T10:32:42;100445.03;;;25.54;76.55
48624;BME280;34422;45.802;16.114;2022-08-02T10:37:39;100450.75;;;25.58;74.16
48624;BME280;34422;45.802;16.114;2022-08-02T10:40:06;100443.38;;;25.53;74.22
48624;BME280;34422;45.802;16.114;2022-08-02T10:42:50;100442.13;;;25.59;73.86
48624;BME280;34422;45.802;16.114;2022-08-02T10:45:19;100434.34;;;25.75;75.48
48624;BME280;34422;45.802;16.114;2022-08-02T10:47:59;100440.91;;;25.93;75.00
48624;BME280;34422;45.802;16.114;2022-08-02T10:55:49;100425.59;;;26.45;72.17
48624;BME280;34422;45.802;16.114;2022-08-02T10:58:17;100419.91;;;26.14;72.51
48624;BME280;34422;45.802;16.114;2022-08-02T11:00:45;100425.69;;;26.04;74.60
48624;BME280;34422;45.802;16.114;2022-08-02T11:03:36;100418.09;;;26.45;73.09
48624;BME280;34422;45.802;16.114;2022-08-02T11:06:13;100417.25;;;26.67;71.44
48624;BME280;34422;45.802;16.114;2022-08-02T11:08:40;100425.38;;;26.86;70.73
48624;BME280;34422;45.802;16.114;2022-08-02T11:13:59;100424.06;;;27.85;67.39
48624;BME280;34422;45.802;16.114;2022-08-02T11:22:38;100415.13;;;28.48;65.62
48624;BME280;34422;45.802;16.114;2022-08-02T11:30:18;100405.91;;;28.74;65.14
48624;BME280;34422;45.802;16.114;2022-08-02T11:32:46;100404.28;;;28.90;63.64
48624;BME280;34422;45.802;16.114;2022-08-02T11:35:14;100404.47;;;29.31;62.44
48624;BME280;34422;45.802;16.114;2022-08-02T11:37:42;100399.88;;;29.35;61.35
48624;BME280;34422;45.802;16.114;2022-08-02T11:40:11;100391.41;;;30.12;58.73
48624;BME280;34422;45.802;16.114;2022-08-02T11:42:42;100401.13;;;30.26;59.29
48624;BME280;34422;45.802;16.114;2022-08-02T11:45:14;100396.16;;;29.23;61.08
48624;BME280;34422;45.802;16.114;2022-08-02T11:50:12;100402.50;;;29.99;58.95
48624;BME280;34422;45.802;16.114;2022-08-02T11:52:39;100392.28;;;30.03;60.03
48624;BME280;34422;45.802;16.114;2022-08-02T11:55:06;100395.09;;;29.74;57.06
48624;BME280;34422;45.802;16.114;2022-08-02T11:57:34;100400.75;;;29.57;59.76
48624;BME280;34422;45.802;16.114;2022-08-02T12:00:01;100394.63;;;28.87;60.85
48624;BME280;34422;45.802;16.114;2022-08-02T12:02:30;100397.53;;;28.99;59.32
48624;BME280;34422;45.802;16.114;2022-08-02T12:04:59;100398.66;;;29.07;60.65
48624;BME280;34422;45.802;16.114;2022-08-02T12:07:31;100390.69;;;28.88;59.71
48624;BME280;34422;45.802;16.114;2022-08-02T12:09:59;100389.38;;;28.94;60.30
48624;BME280;34422;45.802;16.114;2022-08-02T12:12:26;100389.25;;;28.56;59.54
48624;BME280;34422;45.802;16.114;2022-08-02T12:14:53;100392.00;;;28.91;61.18
48624;BME280;34422;45.802;16.114;2022-08-02T12:17:26;100388.41;;;29.28;61.47
48624;BME280;34422;45.802;16.114;2022-08-02T12:20:11;100388.34;;;29.08;60.63
48624;BME280;34422;45.802;16.114;2022-08-02T12:22:39;100389.91;;;28.53;60.32
48624;BME280;34422;45.802;16.114;2022-08-02T12:25:17;100388.25;;;28.18;61.05
48624;BME280;34422;45.802;16.114;2022-08-02T12:27:45;100380.56;;;28.67;59.77
48624;BME280;34422;45.802;16.114;2022-08-02T12:30:15;100386.88;;;29.10;60.72
48624;BME280;34422;45.802;16.114;2022-08-02T12:32:43;100381.69;;;29.38;59.47
48624;BME280;34422;45.802;16.114;2022-08-02T12:35:15;100381.00;;;29.32;58.70
48624;BME280;34422;45.802;16.114;2022-08-02T12:37:44;100373.09;;;29.05;56.02
48624;BME280;34422;45.802;16.114;2022-08-02T12:40:28;100381.13;;;29.07;59.35
48624;BME280;34422;45.802;16.114;2022-08-02T12:43:00;100370.00;;;29.07;57.33
48624;BME280;34422;45.802;16.114;2022-08-02T12:45:29;100365.94;;;29.25;58.82
48624;BME280;34422;45.802;16.114;2022-08-02T12:47:59;100363.28;;;29.37;56.79
48624;BME280;34422;45.802;16.114;2022-08-02T12:50:30;100351.63;;;29.44;57.20
48624;BME280;34422;45.802;16.114;2022-08-02T12:53:16;100358.44;;;29.55;56.20
48624;BME280;34422;45.802;16.114;2022-08-02T12:56:01;100359.69;;;29.66;55.03
48624;BME280;34422;45.802;16.114;2022-08-02T12:58:28;100357.22;;;29.44;56.03
48624;BME280;34422;45.802;16.114;2022-08-02T13:01:00;100349.03;;;29.39;55.77
48624;BME280;34422;45.802;16.114;2022-08-02T13:03:27;100342.16;;;29.27;55.52
48624;BME280;34422;45.802;16.114;2022-08-02T13:05:54;100343.97;;;29.32;57.08
48624;BME280;34422;45.802;16.114;2022-08-02T13:08:21;100335.94;;;29.30;57.22
48624;BME280;34422;45.802;16.114;2022-08-02T13:10:48;100340.88;;;28.78;58.96
48624;BME280;34422;45.802;16.114;2022-08-02T13:13:14;100340.06;;;28.78;59.35
48624;BME280;34422;45.802;16.114;2022-08-02T13:15:41;100342.03;;;28.86;57.94
48624;BME280;34422;45.802;16.114;2022-08-02T13:18:08;100334.66;;;28.73;59.36
48624;BME280;34422;45.802;16.114;2022-08-02T13:20:36;100335.81;;;28.72;57.52